sensor_id;sensor_type;location;lat;lon;timestamp;P1;durP1;ratioP1;P2;durP2;ratioP2
1136;SDS011;557;48.466;7.950;2023-02-13T00:01:41;17.40;;;11.57;;
1136;SDS011;557;48.466;7.950;2023-02-13T00:04:28;22.93;;;11.40;;
1136;SDS011;557;48.466;7.950;2023-02-13T00:07:15;26.90;;;12.93;;
1136;SDS011;557;48.466;7.950;2023-02-13T00:10:05;32.07;;;16.33;;
1136;SDS011;557;48.466;7.950;2023-02-13T00:12:52;22.50;;;11.40;;
1136;SDS011;557;48.466;7.950;2023-02-13T00:15:40;218.87;;;60.97;;
1136;SDS011;557;48.466;7.950;2023-02-13T00:18:27;35.67;;;16.17;;
1136;SDS011;557;48.466;7.950;2023-02-13T00:21:16;23.43;;;11.47;;
1136;SDS011;557;48.466;7.950;2023-02-13T00:24:03;21.20;;;11.07;;
1136;SDS011;557;48.466;7.950;2023-02-13T00:26:53;36.73;;;16.23;;
1136;SDS011;557;48.466;7.950;2023-02-13T00:29:40;52.87;;;23.37;;
1136;SDS011;557;48.466;7.950;2023-02-13T00:32:27;40.97;;;17.67;;
1136;SDS011;557;48.466;7.950;2023-02-13T00:35:16;33.67;;;17.70;;
1136;SDS011;557;48.466;7.950;2023-02-13T00:38:03;38.23;;;17.00;;
1136;SDS011;557;48.466;7.950;2023-02-13T00:40:51;29.23;;;13.60;;
1136;SDS011;557;48.466;7.950;2023-02-13T00:43:39;22.97;;;10.90;;
1136;SDS011;557;48.466;7.950;2023-02-13T00:46:26;17.07;;;8.23;;
1136;SDS011;557;48.466;7.950;2023-02-13T00:49:14;16.57;;;9.07;;
1136;SDS011;557;48.466;7.950;2023-02-13T00:52:01;18.97;;;8.53;;
1136;SDS011;557;48.466;7.950;2023-02-13T00:54:48;11.13;;;7.07;;
1136;SDS011;557;48.466;7.950;2023-02-13T00:57:36;12.80;;;7.83;;
1136;SDS011;557;48.466;7.950;2023-02-13T01:00:24;12.60;;;8.13;;
1136;SDS011;557;48.466;7.950;2023-02-13T01:03:12;16.80;;;8.50;;
1136;SDS011;557;48.466;7.950;2023-02-13T01:06:00;23.80;;;12.90;;
1136;SDS011;557;48.466;7.950;2023-02-13T01:08:47;15.60;;;8.77;;
1136;SDS011;557;48.466;7.950;2023-02-13T01:11:34;16.17;;;9.73;;
1136;SDS011;557;48.466;7.950;2023-02-13T01:14:22;17.43;;;10.00;;
1136;SDS011;557;48.466;7.950;2023-02-13T01:17:10;17.10;;;9.33;;
1136;SDS011;557;48.466;7.950;2023-02-13T01:19:58;20.87;;;9.80;;
1136;SDS011;557;48.466;7.950;2023-02-13T01:22:45;19.43;;;9.57;;
1136;SDS011;557;48.466;7.950;2023-02-13T01:25:32;15.83;;;8.10;;
1136;SDS011;557;48.466;7.950;2023-02-13T01:28:20;11.20;;;6.80;;
1136;SDS011;557;48.466;7.950;2023-02-13T01:31:07;10.23;;;6.33;;
1136;SDS011;557;48.466;7.950;2023-02-13T01:33:56;9.77;;;6.30;;
1136;SDS011;557;48.466;7.950;2023-02-13T01:36:44;12.10;;;7.10;;
1136;SDS011;557;48.466;7.950;2023-02-13T01:39:31;11.47;;;6.67;;
1136;SDS011;557;48.466;7.950;2023-02-13T01:42:20;8.63;;;6.03;;
1136;SDS011;557;48.466;7.950;2023-02-13T01:45:18;11.23;;;6.10;;
1136;SDS011;557;48.466;7.950;2023-02-13T01:48:10;10.83;;;5.77;;
1136;SDS011;557;48.466;7.950;2023-02-13T01:51:01;9.83;;;5.90;;
1136;SDS011;557;48.466;7.950;2023-02-13T01:53:55;14.33;;;6.73;;
1136;SDS011;557;48.466;7.950;2023-02-13T01:56:45;10.67;;;5.90;;
1136;SDS011;557;48.466;7.950;2023-02-13T01:59:36;7.90;;;5.10;;
1136;SDS011;557;48.466;7.950;2023-02-13T02:02:28;11.80;;;5.80;;
1136;SDS011;557;48.466;7.950;2023-02-13T02:05:21;8.50;;;5.30;;
1136;SDS011;557;48.466;7.950;2023-02-13T02:08:12;11.10;;;6.87;;
1136;SDS011;557;48.466;7.950;2023-02-13T02:11:03;9.30;;;5.60;;
1136;SDS011;557;48.466;7.950;2023-02-13T02:13:57;12.00;;;5.63;;
1136;SDS011;557;48.466;7.950;2023-02-13T02:16:44;9.33;;;5.33;;
1136;SDS011;557;48.466;7.950;2023-02-13T02:19:33;9.77;;;5.70;;
1136;SDS011;557;48.466;7.950;2023-02-13T02:29:08;10.80;;;5.70;;
1136;SDS011;557;48.466;7.950;2023-02-13T02:32:28;10.20;;;5.80;;
1136;SDS011;557;48.466;7.950;2023-02-13T02:35:28;12.80;;;5.37;;
1136;SDS011;557;48.466;7.950;2023-02-13T02:38:24;10.10;;;5.40;;
1136;SDS011;557;48.466;7.950;2023-02-13T02:41:25;9.27;;;5.70;;
1136;SDS011;557;48.466;7.950;2023-02-13T02:44:31;9.73;;;5.13;;
1136;SDS011;557;48.466;7.950;2023-02-13T02:47:24;8.77;;;5.60;;
1136;SDS011;557;48.466;7.950;2023-02-13T02:50:36;9.47;;;5.77;;
1136;SDS011;557;48.466;7.950;2023-02-13T02:53:28;8.53;;;5.63;;
1136;SDS011;557;48.466;7.950;2023-02-13T02:56:22;9.67;;;5.67;;
1136;SDS011;557;48.466;7.950;2023-02-13T02:59:13;10.20;;;5.60;;
1136;SDS011;557;48.466;7.950;2023-02-13T03:02:21;12.77;;;5.90;;
1136;SDS011;557;48.466;7.950;2023-02-13T03:05:27;10.17;;;6.07;;
1136;SDS011;557;48.466;7.950;2023-02-13T03:08:35;12.57;;;5.90;;
1136;SDS011;557;48.466;7.950;2023-02-13T03:11:40;11.10;;;6.30;;
1136;SDS011;557;48.466;7.950;2023-02-13T03:14:48;8.47;;;5.67;;
1136;SDS011;557;48.466;7.950;2023-02-13T03:17:36;11.10;;;6.03;;
1136;SDS011;557;48.466;7.950;2023-02-13T03:20:42;9.30;;;5.23;;
1136;SDS011;557;48.466;7.950;2023-02-13T03:24:09;11.83;;;6.87;;
1136;SDS011;557;48.466;7.950;2023-02-13T03:27:05;8.87;;;5.67;;
1136;SDS011;557;48.466;7.950;2023-02-13T03:29:59;15.30;;;7.10;;
1136;SDS011;557;48.466;7.950;2023-02-13T03:32:55;11.70;;;5.73;;
1136;SDS011;557;48.466;7.950;2023-02-13T03:35:50;11.10;;;6.20;;
1136;SDS011;557;48.466;7.950;2023-02-13T03:39:02;11.80;;;5.50;;
1136;SDS011;557;48.466;7.950;2023-02-13T03:41:55;10.83;;;6.57;;
1136;SDS011;557;48.466;7.950;2023-02-13T03:44:48;10.50;;;6.07;;
1136;SDS011;557;48.466;7.950;2023-02-13T03:48:00;10.20;;;6.17;;
1136;SDS011;557;48.466;7.950;2023-02-13T03:50:55;9.00;;;4.47;;
1136;SDS011;557;48.466;7.950;2023-02-13T03:53:42;16.03;;;6.40;;
1136;SDS011;557;48.466;7.950;2023-02-13T03:56:36;11.07;;;6.50;;
1136;SDS011;557;48.466;7.950;2023-02-13T03:59:44;10.17;;;5.47;;
1136;SDS011;557;48.466;7.950;2023-02-13T04:02:32;11.20;;;5.90;;
1136;SDS011;557;48.466;7.950;2023-02-13T04:05:23;9.00;;;5.50;;
1136;SDS011;557;48.466;7.950;2023-02-13T04:08:13;11.27;;;6.00;;
1136;SDS011;557;48.466;7.950;2023-02-13T04:11:02;8.27;;;5.87;;
1136;SDS011;557;48.466;7.950;2023-02-13T04:13:57;9.63;;;6.30;;
1136;SDS011;557;48.466;7.950;2023-02-13T04:16:46;13.00;;;7.40;;
1136;SDS011;557;48.466;7.950;2023-02-13T04:19:37;9.30;;;5.17;;
1136;SDS011;557;48.466;7.950;2023-02-13T04:22:25;10.50;;;6.30;;
1136;SDS011;557;48.466;7.950;2023-02-13T04:25:13;12.80;;;6.00;;
1136;SDS011;557;48.466;7.950;2023-02-13T04:28:02;11.90;;;6.47;;
1136;SDS011;557;48.466;7.950;2023-02-13T04:30:51;9.37;;;5.63;;
1136;SDS011;557;48.466;7.950;2023-02-13T04:33:39;10.17;;;5.40;;
1136;SDS011;557;48.466;7.950;2023-02-13T04:36:26;9.53;;;5.97;;
1136;SDS011;557;48.466;7.950;2023-02-13T04:39:14;9.10;;;5.87;;
1136;SDS011;557;48.466;7.950;2023-02-13T04:42:01;11.20;;;6.30;;
1136;SDS011;557;48.466;7.950;2023-02-13T04:44:48;11.37;;;6.33;;
1136;SDS011;557;48.466;7.950;2023-02-13T04:47:37;12.17;;;6.13;;
1136;SDS011;557;48.466;7.950;2023-02-13T04:50:24;13.80;;;7.83;;
1136;SDS011;557;48.466;7.950;2023-02-13T04:53:12;12.37;;;6.10;;
1136;SDS011;557;48.466;7.950;2023-02-13T04:55:59;11.90;;;5.40;;
1136;SDS011;557;48.466;7.950;2023-02-13T04:58:46;10.07;;;5.63;;
1136;SDS011;557;48.466;7.950;2023-02-13T05:01:33;10.60;;;5.50;;
1136;SDS011;557;48.466;7.950;2023-02-13T05:04:22;6.47;;;4.73;;
1136;SDS011;557;48.466;7.950;2023-02-13T05:07:10;7.47;;;5.00;;
1136;SDS011;557;48.466;7.950;2023-02-13T05:09:57;12.30;;;6.63;;
1136;SDS011;557;48.466;7.950;2023-02-13T05:12:46;11.17;;;7.07;;
1136;SDS011;557;48.466;7.950;2023-02-13T05:15:33;11.90;;;6.33;;
1136;SDS011;557;48.466;7.950;2023-02-13T05:18:21;13.20;;;6.97;;
1136;SDS011;557;48.466;7.950;2023-02-13T05:21:09;9.40;;;6.77;;
1136;SDS011;557;48.466;7.950;2023-02-13T05:24:14;13.57;;;7.03;;
1136;SDS011;557;48.466;7.950;2023-02-13T05:27:01;8.93;;;5.80;;
1136;SDS011;557;48.466;7.950;2023-02-13T05:29:49;10.80;;;6.20;;
1136;SDS011;557;48.466;7.950;2023-02-13T05:32:36;9.67;;;5.40;;
1136;SDS011;557;48.466;7.950;2023-02-13T05:35:24;11.90;;;5.90;;
1136;SDS011;557;48.466;7.950;2023-02-13T05:38:12;10.23;;;6.67;;
1136;SDS011;557;48.466;7.950;2023-02-13T05:41:00;12.23;;;6.30;;
1136;SDS011;557;48.466;7.950;2023-02-13T05:43:47;13.33;;;6.60;;
1136;SDS011;557;48.466;7.950;2023-02-13T05:46:35;13.47;;;8.13;;
1136;SDS011;557;48.466;7.950;2023-02-13T05:49:23;16.27;;;7.83;;
1136;SDS011;557;48.466;7.950;2023-02-13T05:52:11;17.17;;;9.13;;
1136;SDS011;557;48.466;7.950;2023-02-13T05:54:59;17.83;;;10.93;;
1136;SDS011;557;48.466;7.950;2023-02-13T05:57:47;13.80;;;8.90;;
1136;SDS011;557;48.466;7.950;2023-02-13T06:00:34;17.17;;;9.77;;
1136;SDS011;557;48.466;7.950;2023-02-13T06:03:22;26.70;;;12.77;;
1136;SDS011;557;48.466;7.950;2023-02-13T06:06:09;19.00;;;10.67;;
1136;SDS011;557;48.466;7.950;2023-02-13T06:08:56;20.97;;;11.50;;
1136;SDS011;557;48.466;7.950;2023-02-13T06:11:45;23.93;;;12.63;;
1136;SDS011;557;48.466;7.950;2023-02-13T06:14:32;18.40;;;11.50;;
1136;SDS011;557;48.466;7.950;2023-02-13T06:17:20;21.20;;;11.67;;
1136;SDS011;557;48.466;7.950;2023-02-13T06:20:07;21.43;;;11.20;;
1136;SDS011;557;48.466;7.950;2023-02-13T06:22:55;20.90;;;10.57;;
1136;SDS011;557;48.466;7.950;2023-02-13T06:25:42;20.77;;;12.07;;
1136;SDS011;557;48.466;7.950;2023-02-13T06:31:20;23.63;;;12.07;;
1136;SDS011;557;48.466;7.950;2023-02-13T06:34:07;19.07;;;11.10;;
1136;SDS011;557;48.466;7.950;2023-02-13T06:36:55;29.80;;;14.97;;
1136;SDS011;557;48.466;7.950;2023-02-13T06:39:42;23.50;;;12.50;;
1136;SDS011;557;48.466;7.950;2023-02-13T06:42:30;25.00;;;13.73;;
1136;SDS011;557;48.466;7.950;2023-02-13T06:45:18;25.10;;;13.77;;
1136;SDS011;557;48.466;7.950;2023-02-13T06:48:06;21.97;;;12.90;;
1136;SDS011;557;48.466;7.950;2023-02-13T06:50:53;25.30;;;12.70;;
1136;SDS011;557;48.466;7.950;2023-02-13T06:53:41;22.43;;;12.83;;
1136;SDS011;557;48.466;7.950;2023-02-13T06:56:29;23.60;;;13.37;;
1136;SDS011;557;48.466;7.950;2023-02-13T06:59:17;22.33;;;13.80;;
1136;SDS011;557;48.466;7.950;2023-02-13T07:02:07;20.67;;;11.60;;
1136;SDS011;557;48.466;7.950;2023-02-13T07:04:55;24.27;;;12.60;;
1136;SDS011;557;48.466;7.950;2023-02-13T07:07:43;26.17;;;15.03;;
1136;SDS011;557;48.466;7.950;2023-02-13T07:10:31;25.97;;;13.83;;
1136;SDS011;557;48.466;7.950;2023-02-13T07:13:18;26.13;;;12.97;;
1136;SDS011;557;48.466;7.950;2023-02-13T07:16:05;21.53;;;12.70;;
1136;SDS011;557;48.466;7.950;2023-02-13T07:18:54;26.77;;;14.23;;
1136;SDS011;557;48.466;7.950;2023-02-13T07:21:41;24.50;;;12.07;;
1136;SDS011;557;48.466;7.950;2023-02-13T07:24:28;28.17;;;12.10;;
1136;SDS011;557;48.466;7.950;2023-02-13T07:27:18;25.50;;;10.97;;
1136;SDS011;557;48.466;7.950;2023-02-13T07:30:05;27.30;;;13.73;;
1136;SDS011;557;48.466;7.950;2023-02-13T07:32:56;24.10;;;13.00;;
1136;SDS011;557;48.466;7.950;2023-02-13T07:35:46;23.63;;;12.57;;
1136;SDS011;557;48.466;7.950;2023-02-13T07:38:34;22.87;;;11.63;;
1136;SDS011;557;48.466;7.950;2023-02-13T07:41:22;23.50;;;12.83;;
1136;SDS011;557;48.466;7.950;2023-02-13T07:44:11;23.20;;;12.30;;
1136;SDS011;557;48.466;7.950;2023-02-13T07:46:58;32.77;;;13.57;;
1136;SDS011;557;48.466;7.950;2023-02-13T07:49:45;26.47;;;12.90;;
1136;SDS011;557;48.466;7.950;2023-02-13T07:52:34;26.17;;;12.73;;
1136;SDS011;557;48.466;7.950;2023-02-13T07:55:22;22.13;;;11.87;;
1136;SDS011;557;48.466;7.950;2023-02-13T07:58:10;28.60;;;14.03;;
1136;SDS011;557;48.466;7.950;2023-02-13T08:00:57;30.50;;;14.60;;
1136;SDS011;557;48.466;7.950;2023-02-13T08:03:53;30.03;;;14.57;;
1136;SDS011;557;48.466;7.950;2023-02-13T08:06:41;22.63;;;12.33;;
1136;SDS011;557;48.466;7.950;2023-02-13T08:09:33;29.87;;;14.70;;
1136;SDS011;557;48.466;7.950;2023-02-13T08:12:38;31.37;;;15.83;;
1136;SDS011;557;48.466;7.950;2023-02-13T08:15:26;36.53;;;17.47;;
1136;SDS011;557;48.466;7.950;2023-02-13T08:18:13;25.80;;;13.47;;
1136;SDS011;557;48.466;7.950;2023-02-13T08:21:01;31.40;;;13.40;;
1136;SDS011;557;48.466;7.950;2023-02-13T08:23:48;31.33;;;15.97;;
1136;SDS011;557;48.466;7.950;2023-02-13T08:26:37;30.20;;;15.00;;
1136;SDS011;557;48.466;7.950;2023-02-13T08:29:25;24.83;;;13.20;;
1136;SDS011;557;48.466;7.950;2023-02-13T08:32:12;26.60;;;12.20;;
1136;SDS011;557;48.466;7.950;2023-02-13T08:35:00;34.33;;;13.40;;
1136;SDS011;557;48.466;7.950;2023-02-13T08:37:47;28.90;;;12.87;;
1136;SDS011;557;48.466;7.950;2023-02-13T08:40:35;29.73;;;13.43;;
1136;SDS011;557;48.466;7.950;2023-02-13T08:43:23;28.83;;;13.00;;
1136;SDS011;557;48.466;7.950;2023-02-13T08:46:11;29.73;;;13.30;;
1136;SDS011;557;48.466;7.950;2023-02-13T08:48:58;30.20;;;12.93;;
1136;SDS011;557;48.466;7.950;2023-02-13T08:51:45;27.17;;;14.20;;
1136;SDS011;557;48.466;7.950;2023-02-13T08:54:33;37.90;;;13.43;;
1136;SDS011;557;48.466;7.950;2023-02-13T08:57:20;37.93;;;13.30;;
1136;SDS011;557;48.466;7.950;2023-02-13T09:00:09;27.40;;;12.67;;
1136;SDS011;557;48.466;7.950;2023-02-13T09:02:59;36.00;;;14.63;;
1136;SDS011;557;48.466;7.950;2023-02-13T09:05:47;32.10;;;14.57;;
1136;SDS011;557;48.466;7.950;2023-02-13T09:08:35;34.10;;;16.03;;
1136;SDS011;557;48.466;7.950;2023-02-13T09:11:22;42.73;;;15.83;;
1136;SDS011;557;48.466;7.950;2023-02-13T09:14:09;33.30;;;14.70;;
1136;SDS011;557;48.466;7.950;2023-02-13T09:16:58;28.40;;;13.57;;
1136;SDS011;557;48.466;7.950;2023-02-13T09:19:46;34.17;;;14.07;;
1136;SDS011;557;48.466;7.950;2023-02-13T09:22:33;39.10;;;15.17;;
1136;SDS011;557;48.466;7.950;2023-02-13T09:25:20;27.97;;;14.27;;
1136;SDS011;557;48.466;7.950;2023-02-13T09:28:08;29.40;;;13.67;;
1136;SDS011;557;48.466;7.950;2023-02-13T09:30:55;50.87;;;23.57;;
1136;SDS011;557;48.466;7.950;2023-02-13T09:33:44;32.57;;;15.20;;
1136;SDS011;557;48.466;7.950;2023-02-13T09:36:32;31.00;;;14.80;;
1136;SDS011;557;48.466;7.950;2023-02-13T09:39:20;32.93;;;13.60;;
1136;SDS011;557;48.466;7.950;2023-02-13T09:42:12;36.53;;;15.33;;
1136;SDS011;557;48.466;7.950;2023-02-13T09:45:04;37.20;;;14.67;;
1136;SDS011;557;48.466;7.950;2023-02-13T09:47:53;36.83;;;14.90;;
1136;SDS011;557;48.466;7.950;2023-02-13T09:50:42;24.73;;;12.03;;
1136;SDS011;557;48.466;7.950;2023-02-13T09:53:29;31.27;;;16.60;;
1136;SDS011;557;48.466;7.950;2023-02-13T09:56:21;34.40;;;15.43;;
1136;SDS011;557;48.466;7.950;2023-02-13T09:59:28;37.50;;;16.37;;
1136;SDS011;557;48.466;7.950;2023-02-13T10:02:27;26.20;;;13.60;;
1136;SDS011;557;48.466;7.950;2023-02-13T10:05:33;32.03;;;13.30;;
1136;SDS011;557;48.466;7.950;2023-02-13T10:12:00;31.93;;;13.83;;
1136;SDS011;557;48.466;7.950;2023-02-13T10:15:14;30.70;;;13.07;;
1136;SDS011;557;48.466;7.950;2023-02-13T10:18:09;30.97;;;14.20;;
1136;SDS011;557;48.466;7.950;2023-02-13T10:21:02;34.63;;;16.07;;
1136;SDS011;557;48.466;7.950;2023-02-13T10:23:53;34.27;;;14.87;;
1136;SDS011;557;48.466;7.950;2023-02-13T10:26:45;34.60;;;14.67;;
1136;SDS011;557;48.466;7.950;2023-02-13T10:29:35;31.07;;;14.53;;
1136;SDS011;557;48.466;7.950;2023-02-13T10:32:50;35.47;;;16.43;;
1136;SDS011;557;48.466;7.950;2023-02-13T10:36:01;38.37;;;14.80;;
1136;SDS011;557;48.466;7.950;2023-02-13T10:38:53;25.67;;;14.50;;
1136;SDS011;557;48.466;7.950;2023-02-13T10:41:43;34.60;;;16.37;;
1136;SDS011;557;48.466;7.950;2023-02-13T10:44:41;31.73;;;15.07;;
1136;SDS011;557;48.466;7.950;2023-02-13T10:47:50;29.80;;;14.13;;
1136;SDS011;557;48.466;7.950;2023-02-13T10:50:44;25.97;;;13.53;;
1136;SDS011;557;48.466;7.950;2023-02-13T10:53:42;25.17;;;13.57;;
1136;SDS011;557;48.466;7.950;2023-02-13T10:56:39;28.57;;;14.20;;
1136;SDS011;557;48.466;7.950;2023-02-13T10:59:33;25.10;;;14.07;;
1136;SDS011;557;48.466;7.950;2023-02-13T11:02:34;28.27;;;13.10;;
1136;SDS011;557;48.466;7.950;2023-02-13T11:05:22;27.83;;;13.83;;
1136;SDS011;557;48.466;7.950;2023-02-13T11:08:13;20.77;;;11.87;;
1136;SDS011;557;48.466;7.950;2023-02-13T11:11:09;23.37;;;11.60;;
1136;SDS011;557;48.466;7.950;2023-02-13T11:14:15;21.83;;;13.03;;
1136;SDS011;557;48.466;7.950;2023-02-13T11:17:05;23.53;;;13.17;;
1136;SDS011;557;48.466;7.950;2023-02-13T11:20:03;20.37;;;11.43;;
1136;SDS011;557;48.466;7.950;2023-02-13T11:22:52;26.83;;;12.50;;
1136;SDS011;557;48.466;7.950;2023-02-13T11:25:41;25.23;;;13.43;;
1136;SDS011;557;48.466;7.950;2023-02-13T11:28:46;26.07;;;12.60;;
1136;SDS011;557;48.466;7.950;2023-02-13T11:31:35;23.17;;;12.40;;
1136;SDS011;557;48.466;7.950;2023-02-13T11:34:25;24.10;;;14.60;;
1136;SDS011;557;48.466;7.950;2023-02-13T11:37:22;26.80;;;12.73;;
1136;SDS011;557;48.466;7.950;2023-02-13T11:40:20;19.77;;;11.17;;
1136;SDS011;557;48.466;7.950;2023-02-13T11:43:21;26.77;;;11.40;;
1136;SDS011;557;48.466;7.950;2023-02-13T11:46:16;24.77;;;12.83;;
1136;SDS011;557;48.466;7.950;2023-02-13T11:49:06;21.97;;;12.30;;
1136;SDS011;557;48.466;7.950;2023-02-13T11:52:05;26.43;;;12.47;;
1136;SDS011;557;48.466;7.950;2023-02-13T11:54:57;24.60;;;12.23;;
1136;SDS011;557;48.466;7.950;2023-02-13T11:57:54;25.13;;;13.30;;
1136;SDS011;557;48.466;7.950;2023-02-13T12:00:43;27.40;;;14.77;;
1136;SDS011;557;48.466;7.950;2023-02-13T12:03:31;26.43;;;13.50;;
1136;SDS011;557;48.466;7.950;2023-02-13T12:06:18;25.23;;;13.70;;
1136;SDS011;557;48.466;7.950;2023-02-13T12:09:11;26.67;;;13.20;;
1136;SDS011;557;48.466;7.950;2023-02-13T12:12:01;25.83;;;13.97;;
1136;SDS011;557;48.466;7.950;2023-02-13T12:14:50;28.30;;;14.07;;
1136;SDS011;557;48.466;7.950;2023-02-13T12:17:37;24.20;;;12.60;;
1136;SDS011;557;48.466;7.950;2023-02-13T12:20:31;29.00;;;13.77;;
1136;SDS011;557;48.466;7.950;2023-02-13T12:23:28;31.57;;;14.10;;
1136;SDS011;557;48.466;7.950;2023-02-13T12:26:24;29.60;;;13.53;;
1136;SDS011;557;48.466;7.950;2023-02-13T12:29:31;30.60;;;15.07;;
1136;SDS011;557;48.466;7.950;2023-02-13T12:32:37;28.00;;;15.30;;
1136;SDS011;557;48.466;7.950;2023-02-13T12:35:40;35.07;;;17.07;;
1136;SDS011;557;48.466;7.950;2023-02-13T12:38:40;31.20;;;14.20;;
1136;SDS011;557;48.466;7.950;2023-02-13T12:41:37;26.43;;;12.90;;
1136;SDS011;557;48.466;7.950;2023-02-13T12:47:57;32.43;;;16.03;;
1136;SDS011;557;48.466;7.950;2023-02-13T12:50:56;28.43;;;14.97;;
1136;SDS011;557;48.466;7.950;2023-02-13T12:54:09;31.83;;;14.37;;
1136;SDS011;557;48.466;7.950;2023-02-13T12:57:20;27.60;;;13.37;;
1136;SDS011;557;48.466;7.950;2023-02-13T13:00:16;25.07;;;12.27;;
1136;SDS011;557;48.466;7.950;2023-02-13T13:03:17;27.13;;;12.07;;
1136;SDS011;557;48.466;7.950;2023-02-13T13:06:20;23.67;;;11.63;;
1136;SDS011;557;48.466;7.950;2023-02-13T13:12:46;28.23;;;13.23;;
1136;SDS011;557;48.466;7.950;2023-02-13T13:15:39;28.30;;;14.10;;
1136;SDS011;557;48.466;7.950;2023-02-13T13:18:39;26.43;;;14.27;;
1136;SDS011;557;48.466;7.950;2023-02-13T13:21:37;23.80;;;13.40;;
1136;SDS011;557;48.466;7.950;2023-02-13T13:24:41;27.10;;;14.40;;
1136;SDS011;557;48.466;7.950;2023-02-13T13:27:41;29.27;;;15.00;;
1136;SDS011;557;48.466;7.950;2023-02-13T13:30:32;27.17;;;14.57;;
1136;SDS011;557;48.466;7.950;2023-02-13T13:33:21;31.43;;;15.93;;
1136;SDS011;557;48.466;7.950;2023-02-13T13:36:10;25.80;;;13.23;;
1136;SDS011;557;48.466;7.950;2023-02-13T13:39:05;26.60;;;13.77;;
1136;SDS011;557;48.466;7.950;2023-02-13T13:42:04;31.87;;;15.40;;
1136;SDS011;557;48.466;7.950;2023-02-13T13:45:04;27.37;;;13.87;;
1136;SDS011;557;48.466;7.950;2023-02-13T13:48:17;26.37;;;13.90;;
1136;SDS011;557;48.466;7.950;2023-02-13T13:51:19;24.07;;;13.60;;
1136;SDS011;557;48.466;7.950;2023-02-13T13:54:17;29.67;;;13.87;;
1136;SDS011;557;48.466;7.950;2023-02-13T13:57:09;29.00;;;14.67;;
1136;SDS011;557;48.466;7.950;2023-02-13T13:59:59;29.63;;;15.23;;
1136;SDS011;557;48.466;7.950;2023-02-13T14:03:22;28.20;;;14.57;;
1136;SDS011;557;48.466;7.950;2023-02-13T14:06:19;27.40;;;14.70;;
1136;SDS011;557;48.466;7.950;2023-02-13T14:12:43;28.53;;;14.27;;
1136;SDS011;557;48.466;7.950;2023-02-13T14:15:48;33.60;;;14.60;;
1136;SDS011;557;48.466;7.950;2023-02-13T14:18:41;29.70;;;14.07;;
1136;SDS011;557;48.466;7.950;2023-02-13T14:21:32;29.67;;;14.97;;
1136;SDS011;557;48.466;7.950;2023-02-13T14:24:19;31.97;;;16.20;;
1136;SDS011;557;48.466;7.950;2023-02-13T14:27:15;33.63;;;15.47;;
1136;SDS011;557;48.466;7.950;2023-02-13T14:30:21;31.83;;;14.10;;
1136;SDS011;557;48.466;7.950;2023-02-13T14:33:20;32.83;;;14.10;;
1136;SDS011;557;48.466;7.950;2023-02-13T14:36:19;36.90;;;15.07;;
1136;SDS011;557;48.466;7.950;2023-02-13T14:39:16;34.83;;;15.17;;
1136;SDS011;557;48.466;7.950;2023-02-13T14:42:20;34.00;;;16.27;;
1136;SDS011;557;48.466;7.950;2023-02-13T14:45:11;36.97;;;15.60;;
1136;SDS011;557;48.466;7.950;2023-02-13T14:48:04;34.80;;;18.30;;
1136;SDS011;557;48.466;7.950;2023-02-13T14:50:57;33.90;;;15.27;;
1136;SDS011;557;48.466;7.950;2023-02-13T14:53:48;31.27;;;15.93;;
1136;SDS011;557;48.466;7.950;2023-02-13T14:56:38;34.47;;;16.87;;
1136;SDS011;557;48.466;7.950;2023-02-13T14:59:26;30.27;;;14.53;;
1136;SDS011;557;48.466;7.950;2023-02-13T15:02:21;27.53;;;14.93;;
1136;SDS011;557;48.466;7.950;2023-02-13T15:05:11;30.70;;;14.83;;
1136;SDS011;557;48.466;7.950;2023-02-13T15:08:02;38.33;;;16.37;;
1136;SDS011;557;48.466;7.950;2023-02-13T15:10:55;37.77;;;16.63;;
1136;SDS011;557;48.466;7.950;2023-02-13T15:13:43;31.50;;;14.57;;
1136;SDS011;557;48.466;7.950;2023-02-13T15:16:30;33.77;;;16.20;;
1136;SDS011;557;48.466;7.950;2023-02-13T15:19:18;34.73;;;16.70;;
1136;SDS011;557;48.466;7.950;2023-02-13T15:22:14;34.83;;;16.27;;
1136;SDS011;557;48.466;7.950;2023-02-13T15:25:05;40.23;;;17.33;;
1136;SDS011;557;48.466;7.950;2023-02-13T15:27:55;35.27;;;16.70;;
1136;SDS011;557;48.466;7.950;2023-02-13T15:30:51;31.70;;;15.40;;
1136;SDS011;557;48.466;7.950;2023-02-13T15:33:42;37.07;;;16.17;;
1136;SDS011;557;48.466;7.950;2023-02-13T15:36:33;34.37;;;14.90;;
1136;SDS011;557;48.466;7.950;2023-02-13T15:39:25;41.23;;;16.53;;
1136;SDS011;557;48.466;7.950;2023-02-13T15:42:14;35.10;;;15.90;;
1136;SDS011;557;48.466;7.950;2023-02-13T15:45:04;33.27;;;16.43;;
1136;SDS011;557;48.466;7.950;2023-02-13T15:47:52;33.87;;;15.57;;
1136;SDS011;557;48.466;7.950;2023-02-13T15:50:40;34.77;;;16.27;;
1136;SDS011;557;48.466;7.950;2023-02-13T15:53:28;36.93;;;16.60;;
1136;SDS011;557;48.466;7.950;2023-02-13T15:56:16;48.10;;;17.57;;
1136;SDS011;557;48.466;7.950;2023-02-13T15:59:03;39.10;;;16.37;;
1136;SDS011;557;48.466;7.950;2023-02-13T16:01:52;38.20;;;16.90;;
1136;SDS011;557;48.466;7.950;2023-02-13T16:04:40;38.87;;;17.80;;
1136;SDS011;557;48.466;7.950;2023-02-13T16:07:28;37.13;;;17.40;;
1136;SDS011;557;48.466;7.950;2023-02-13T16:10:17;37.73;;;15.57;;
1136;SDS011;557;48.466;7.950;2023-02-13T16:13:13;38.50;;;17.50;;
1136;SDS011;557;48.466;7.950;2023-02-13T16:16:06;38.23;;;16.70;;
1136;SDS011;557;48.466;7.950;2023-02-13T16:18:57;43.03;;;17.77;;
1136;SDS011;557;48.466;7.950;2023-02-13T16:21:45;35.90;;;16.50;;
1136;SDS011;557;48.466;7.950;2023-02-13T16:24:34;40.87;;;18.00;;
1136;SDS011;557;48.466;7.950;2023-02-13T16:27:23;44.17;;;16.70;;
1136;SDS011;557;48.466;7.950;2023-02-13T16:30:29;49.00;;;18.90;;
1136;SDS011;557;48.466;7.950;2023-02-13T16:33:20;41.03;;;16.50;;
1136;SDS011;557;48.466;7.950;2023-02-13T16:39:17;43.07;;;17.30;;
1136;SDS011;557;48.466;7.950;2023-02-13T16:42:11;41.47;;;16.90;;
1136;SDS011;557;48.466;7.950;2023-02-13T16:45:19;41.70;;;18.63;;
1136;SDS011;557;48.466;7.950;2023-02-13T16:48:08;42.37;;;19.43;;
1136;SDS011;557;48.466;7.950;2023-02-13T16:50:58;40.97;;;16.80;;
1136;SDS011;557;48.466;7.950;2023-02-13T16:53:47;42.87;;;17.53;;
1136;SDS011;557;48.466;7.950;2023-02-13T16:56:43;48.60;;;18.50;;
1136;SDS011;557;48.466;7.950;2023-02-13T17:02:44;38.80;;;17.10;;
1136;SDS011;557;48.466;7.950;2023-02-13T17:08:57;52.70;;;20.80;;
1136;SDS011;557;48.466;7.950;2023-02-13T17:11:44;43.13;;;17.63;;
1136;SDS011;557;48.466;7.950;2023-02-13T17:14:36;46.97;;;17.93;;
1136;SDS011;557;48.466;7.950;2023-02-13T17:17:25;42.17;;;19.10;;
1136;SDS011;557;48.466;7.950;2023-02-13T17:20:14;41.20;;;17.37;;
1136;SDS011;557;48.466;7.950;2023-02-13T17:23:04;37.43;;;16.10;;
1136;SDS011;557;48.466;7.950;2023-02-13T17:25:54;51.70;;;18.80;;
1136;SDS011;557;48.466;7.950;2023-02-13T17:28:41;48.23;;;18.37;;
1136;SDS011;557;48.466;7.950;2023-02-13T17:31:29;44.07;;;17.00;;
1136;SDS011;557;48.466;7.950;2023-02-13T17:34:16;39.30;;;16.10;;
1136;SDS011;557;48.466;7.950;2023-02-13T17:37:04;49.87;;;18.80;;
1136;SDS011;557;48.466;7.950;2023-02-13T17:40:00;45.97;;;19.53;;
1136;SDS011;557;48.466;7.950;2023-02-13T17:42:50;63.33;;;24.17;;
1136;SDS011;557;48.466;7.950;2023-02-13T17:45:39;43.53;;;20.17;;
1136;SDS011;557;48.466;7.950;2023-02-13T17:48:26;35.27;;;19.47;;
1136;SDS011;557;48.466;7.950;2023-02-13T17:51:13;50.83;;;20.43;;
1136;SDS011;557;48.466;7.950;2023-02-13T17:54:01;59.73;;;21.60;;
1136;SDS011;557;48.466;7.950;2023-02-13T17:56:48;50.80;;;18.57;;
1136;SDS011;557;48.466;7.950;2023-02-13T17:59:37;46.23;;;18.37;;
1136;SDS011;557;48.466;7.950;2023-02-13T18:02:25;54.83;;;21.23;;
1136;SDS011;557;48.466;7.950;2023-02-13T18:05:12;57.50;;;20.23;;
1136;SDS011;557;48.466;7.950;2023-02-13T18:08:01;39.57;;;17.60;;
1136;SDS011;557;48.466;7.950;2023-02-13T18:10:48;48.10;;;16.90;;
1136;SDS011;557;48.466;7.950;2023-02-13T18:13:36;52.67;;;17.67;;